sensor_id;sensor_type;location;lat;lon;timestamp;P1;durP1;ratioP1;P2;durP2;ratioP2
70800;SDS011;59616;52.170;5.386;2023-03-11T00:04:47;3.30;;;1.48;;
70800;SDS011;59616;52.170;5.386;2023-03-11T00:07:14;6.13;;;1.00;;
70800;SDS011;59616;52.170;5.386;2023-03-11T00:12:08;8.73;;;1.85;;
70800;SDS011;59616;52.170;5.386;2023-03-11T00:17:01;4.82;;;1.23;;
70800;SDS011;59616;52.170;5.386;2023-03-11T00:19:28;7.15;;;1.13;;
70800;SDS011;59616;52.170;5.386;2023-03-11T00:24:23;3.65;;;0.93;;
70800;SDS011;59616;52.170;5.386;2023-03-11T00:26:50;4.28;;;1.08;;
70800;SDS011;59616;52.170;5.386;2023-03-11T00:31:44;3.10;;;1.15;;
70800;SDS011;59616;52.170;5.386;2023-03-11T00:36:37;3.95;;;0.70;;
70800;SDS011;59616;52.170;5.386;2023-03-11T00:39:05;4.35;;;0.95;;
70800;SDS011;59616;52.170;5.386;2023-03-11T00:43:59;3.58;;;0.95;;
70800;SDS011;59616;52.170;5.386;2023-03-11T00:46:28;4.25;;;0.80;;
70800;SDS011;59616;52.170;5.386;2023-03-11T00:48:56;5.63;;;1.25;;
70800;SDS011;59616;52.170;5.386;2023-03-11T00:51:23;12.15;;;1.60;;
70800;SDS011;59616;52.170;5.386;2023-03-11T00:56:17;4.10;;;0.80;;
70800;SDS011;59616;52.170;5.386;2023-03-11T00:58:44;4.93;;;1.05;;
70800;SDS011;59616;52.170;5.386;2023-03-11T01:03:40;4.10;;;1.00;;
70800;SDS011;59616;52.170;5.386;2023-03-11T01:06:09;6.85;;;1.65;;
70800;SDS011;59616;52.170;5.386;2023-03-11T01:08:36;2.88;;;1.10;;
70800;SDS011;59616;52.170;5.386;2023-03-11T01:11:04;6.85;;;0.98;;
70800;SDS011;59616;52.170;5.386;2023-03-11T01:13:31;5.20;;;0.88;;
70800;SDS011;59616;52.170;5.386;2023-03-11T01:15:59;6.10;;;1.10;;
70800;SDS011;59616;52.170;5.386;2023-03-11T01:18:26;3.03;;;0.80;;
70800;SDS011;59616;52.170;5.386;2023-03-11T01:20:53;6.40;;;1.00;;
70800;SDS011;59616;52.170;5.386;2023-03-11T01:23:21;4.55;;;1.10;;
70800;SDS011;59616;52.170;5.386;2023-03-11T01:25:48;5.93;;;0.85;;
70800;SDS011;59616;52.170;5.386;2023-03-11T01:28:15;4.18;;;1.08;;
70800;SDS011;59616;52.170;5.386;2023-03-11T01:30:43;8.88;;;1.20;;
70800;SDS011;59616;52.170;5.386;2023-03-11T01:33:14;3.35;;;0.80;;
70800;SDS011;59616;52.170;5.386;2023-03-11T01:35:42;5.18;;;1.02;;
70800;SDS011;59616;52.170;5.386;2023-03-11T01:38:09;6.35;;;0.80;;
70800;SDS011;59616;52.170;5.386;2023-03-11T01:43:33;2.72;;;0.75;;
70800;SDS011;59616;52.170;5.386;2023-03-11T01:48:24;2.33;;;0.63;;
70800;SDS011;59616;52.170;5.386;2023-03-11T01:50:51;4.85;;;0.93;;
70800;SDS011;59616;52.170;5.386;2023-03-11T01:53:18;2.15;;;0.60;;
70800;SDS011;59616;52.170;5.386;2023-03-11T01:55:46;2.53;;;0.68;;
70800;SDS011;59616;52.170;5.386;2023-03-11T01:58:15;4.60;;;0.90;;
70800;SDS011;59616;52.170;5.386;2023-03-11T02:00:44;5.95;;;1.30;;
70800;SDS011;59616;52.170;5.386;2023-03-11T02:03:16;4.05;;;0.90;;
70800;SDS011;59616;52.170;5.386;2023-03-11T02:08:12;1.70;;;0.55;;
70800;SDS011;59616;52.170;5.386;2023-03-11T02:13:07;4.13;;;0.82;;
70800;SDS011;59616;52.170;5.386;2023-03-11T02:15:35;5.65;;;0.88;;
70800;SDS011;59616;52.170;5.386;2023-03-11T02:18:05;3.22;;;0.80;;
70800;SDS011;59616;52.170;5.386;2023-03-11T02:20:42;3.28;;;0.90;;
70800;SDS011;59616;52.170;5.386;2023-03-11T02:23:12;5.13;;;0.80;;
70800;SDS011;59616;52.170;5.386;2023-03-11T02:25:51;3.80;;;1.00;;
70800;SDS011;59616;52.170;5.386;2023-03-11T02:28:21;5.70;;;0.80;;
70800;SDS011;59616;52.170;5.386;2023-03-11T02:30:49;4.80;;;0.95;;
70800;SDS011;59616;52.170;5.386;2023-03-11T02:33:18;2.03;;;0.60;;
70800;SDS011;59616;52.170;5.386;2023-03-11T02:35:46;2.33;;;0.52;;
70800;SDS011;59616;52.170;5.386;2023-03-11T02:38:13;3.10;;;0.68;;
70800;SDS011;59616;52.170;5.386;2023-03-11T02:40:47;5.85;;;0.88;;
70800;SDS011;59616;52.170;5.386;2023-03-11T02:43:18;6.32;;;1.05;;
70800;SDS011;59616;52.170;5.386;2023-03-11T02:45:45;2.55;;;0.65;;
70800;SDS011;59616;52.170;5.386;2023-03-11T02:48:14;5.32;;;0.73;;
70800;SDS011;59616;52.170;5.386;2023-03-11T02:50:42;4.53;;;0.95;;
70800;SDS011;59616;52.170;5.386;2023-03-11T02:53:10;6.53;;;0.90;;
70800;SDS011;59616;52.170;5.386;2023-03-11T02:55:37;5.45;;;1.20;;
70800;SDS011;59616;52.170;5.386;2023-03-11T02:58:05;6.50;;;0.80;;
70800;SDS011;59616;52.170;5.386;2023-03-11T03:00:32;4.05;;;1.05;;
70800;SDS011;59616;52.170;5.386;2023-03-11T03:03:03;6.00;;;0.90;;
70800;SDS011;59616;52.170;5.386;2023-03-11T03:05:31;1.15;;;0.50;;
70800;SDS011;59616;52.170;5.386;2023-03-11T03:07:59;4.40;;;0.90;;
70800;SDS011;59616;52.170;5.386;2023-03-11T03:10:28;5.22;;;1.27;;
70800;SDS011;59616;52.170;5.386;2023-03-11T03:12:55;5.35;;;0.85;;
70800;SDS011;59616;52.170;5.386;2023-03-11T03:15:23;3.08;;;0.73;;
70800;SDS011;59616;52.170;5.386;2023-03-11T03:17:51;6.28;;;0.90;;
70800;SDS011;59616;52.170;5.386;2023-03-11T03:20:18;5.05;;;0.80;;
70800;SDS011;59616;52.170;5.386;2023-03-11T03:22:51;3.60;;;0.70;;
70800;SDS011;59616;52.170;5.386;2023-03-11T03:25:21;4.05;;;0.50;;
70800;SDS011;59616;52.170;5.386;2023-03-11T03:27:49;2.33;;;0.80;;
70800;SDS011;59616;52.170;5.386;2023-03-11T03:30:17;5.43;;;1.17;;
70800;SDS011;59616;52.170;5.386;2023-03-11T03:32:45;3.33;;;1.02;;
70800;SDS011;59616;52.170;5.386;2023-03-11T03:35:14;1.73;;;0.65;;
70800;SDS011;59616;52.170;5.386;2023-03-11T03:38:03;3.13;;;0.85;;
70800;SDS011;59616;52.170;5.386;2023-03-11T03:40:31;3.63;;;0.75;;
70800;SDS011;59616;52.170;5.386;2023-03-11T03:43:02;6.25;;;0.98;;
70800;SDS011;59616;52.170;5.386;2023-03-11T03:45:30;3.78;;;0.73;;
70800;SDS011;59616;52.170;5.386;2023-03-11T03:47:58;1.42;;;0.60;;
70800;SDS011;59616;52.170;5.386;2023-03-11T03:50:29;2.92;;;0.80;;
70800;SDS011;59616;52.170;5.386;2023-03-11T03:55:23;0.80;;;0.38;;
70800;SDS011;59616;52.170;5.386;2023-03-11T03:57:51;6.55;;;0.95;;
70800;SDS011;59616;52.170;5.386;2023-03-11T04:00:22;2.38;;;0.63;;
70800;SDS011;59616;52.170;5.386;2023-03-11T04:02:56;3.83;;;0.70;;
70800;SDS011;59616;52.170;5.386;2023-03-11T04:05:31;2.55;;;0.80;;
70800;SDS011;59616;52.170;5.386;2023-03-11T04:07:58;7.40;;;1.33;;
70800;SDS011;59616;52.170;5.386;2023-03-11T04:10:26;2.30;;;0.90;;
70800;SDS011;59616;52.170;5.386;2023-03-11T04:12:53;6.20;;;0.75;;
70800;SDS011;59616;52.170;5.386;2023-03-11T04:17:47;4.93;;;1.08;;
70800;SDS011;59616;52.170;5.386;2023-03-11T04:20:15;1.42;;;0.57;;
70800;SDS011;59616;52.170;5.386;2023-03-11T04:22:45;2.72;;;0.65;;
70800;SDS011;59616;52.170;5.386;2023-03-11T04:25:13;3.95;;;0.73;;
70800;SDS011;59616;52.170;5.386;2023-03-11T04:27:40;3.92;;;0.68;;
70800;SDS011;59616;52.170;5.386;2023-03-11T04:30:12;3.58;;;0.60;;
70800;SDS011;59616;52.170;5.386;2023-03-11T04:32:41;1.40;;;0.50;;
70800;SDS011;59616;52.170;5.386;2023-03-11T04:35:09;2.70;;;0.95;;
70800;SDS011;59616;52.170;5.386;2023-03-11T04:37:37;2.28;;;0.90;;
70800;SDS011;59616;52.170;5.386;2023-03-11T04:40:05;7.25;;;1.00;;
70800;SDS011;59616;52.170;5.386;2023-03-11T04:42:33;2.47;;;0.80;;
70800;SDS011;59616;52.170;5.386;2023-03-11T04:45:00;5.88;;;1.13;;
70800;SDS011;59616;52.170;5.386;2023-03-11T04:47:29;4.53;;;1.00;;
70800;SDS011;59616;52.170;5.386;2023-03-11T04:49:57;2.55;;;0.82;;
70800;SDS011;59616;52.170;5.386;2023-03-11T04:52:24;3.50;;;0.75;;
70800;SDS011;59616;52.170;5.386;2023-03-11T04:54:52;2.30;;;0.77;;
70800;SDS011;59616;52.170;5.386;2023-03-11T04:57:20;1.38;;;0.80;;
70800;SDS011;59616;52.170;5.386;2023-03-11T04:59:47;2.50;;;0.60;;
70800;SDS011;59616;52.170;5.386;2023-03-11T05:02:16;3.17;;;0.63;;
70800;SDS011;59616;52.170;5.386;2023-03-11T05:04:51;3.13;;;0.60;;
70800;SDS011;59616;52.170;5.386;2023-03-11T05:07:18;2.78;;;0.85;;
70800;SDS011;59616;52.170;5.386;2023-03-11T05:09:45;6.07;;;1.13;;
70800;SDS011;59616;52.170;5.386;2023-03-11T05:12:12;5.80;;;0.88;;
70800;SDS011;59616;52.170;5.386;2023-03-11T05:14:44;0.82;;;0.47;;
70800;SDS011;59616;52.170;5.386;2023-03-11T05:19:40;4.15;;;0.90;;
70800;SDS011;59616;52.170;5.386;2023-03-11T05:22:15;3.55;;;0.57;;
70800;SDS011;59616;52.170;5.386;2023-03-11T05:24:42;3.28;;;0.90;;
70800;SDS011;59616;52.170;5.386;2023-03-11T05:29:37;2.30;;;0.77;;
70800;SDS011;59616;52.170;5.386;2023-03-11T05:32:07;2.45;;;0.60;;
70800;SDS011;59616;52.170;5.386;2023-03-11T05:34:35;3.85;;;0.80;;
70800;SDS011;59616;52.170;5.386;2023-03-11T05:37:03;1.98;;;0.75;;
70800;SDS011;59616;52.170;5.386;2023-03-11T05:39:30;0.85;;;0.50;;
70800;SDS011;59616;52.170;5.386;2023-03-11T05:41:58;5.40;;;0.93;;
70800;SDS011;59616;52.170;5.386;2023-03-11T05:44:26;1.55;;;0.68;;
70800;SDS011;59616;52.170;5.386;2023-03-11T05:46:54;6.30;;;0.85;;
70800;SDS011;59616;52.170;5.386;2023-03-11T05:49:22;3.60;;;0.80;;
70800;SDS011;59616;52.170;5.386;2023-03-11T05:51:51;4.72;;;0.93;;
70800;SDS011;59616;52.170;5.386;2023-03-11T05:54:23;2.63;;;0.90;;
70800;SDS011;59616;52.170;5.386;2023-03-11T05:56:51;4.93;;;0.88;;
70800;SDS011;59616;52.170;5.386;2023-03-11T05:59:18;4.93;;;0.73;;
70800;SDS011;59616;52.170;5.386;2023-03-11T06:01:52;3.25;;;0.80;;
70800;SDS011;59616;52.170;5.386;2023-03-11T06:04:21;3.20;;;1.10;;
70800;SDS011;59616;52.170;5.386;2023-03-11T06:06:48;4.18;;;0.70;;
70800;SDS011;59616;52.170;5.386;2023-03-11T06:09:18;4.18;;;0.90;;
70800;SDS011;59616;52.170;5.386;2023-03-11T06:11:45;3.55;;;0.70;;
70800;SDS011;59616;52.170;5.386;2023-03-11T06:14:15;2.22;;;0.50;;
70800;SDS011;59616;52.170;5.386;2023-03-11T06:16:45;5.95;;;0.60;;
70800;SDS011;59616;52.170;5.386;2023-03-11T06:19:12;3.50;;;0.93;;
70800;SDS011;59616;52.170;5.386;2023-03-11T06:21:44;4.35;;;0.88;;
70800;SDS011;59616;52.170;5.386;2023-03-11T06:24:12;2.28;;;0.77;;
70800;SDS011;59616;52.170;5.386;2023-03-11T06:26:39;2.85;;;0.82;;
70800;SDS011;59616;52.170;5.386;2023-03-11T06:29:08;2.10;;;0.85;;
70800;SDS011;59616;52.170;5.386;2023-03-11T06:31:39;2.97;;;0.52;;
70800;SDS011;59616;52.170;5.386;2023-03-11T06:34:10;3.10;;;0.90;;
70800;SDS011;59616;52.170;5.386;2023-03-11T06:36:37;4.65;;;1.13;;
70800;SDS011;59616;52.170;5.386;2023-03-11T06:39:04;3.47;;;1.25;;
70800;SDS011;59616;52.170;5.386;2023-03-11T06:41:33;3.60;;;0.70;;
70800;SDS011;59616;52.170;5.386;2023-03-11T06:44:02;6.95;;;1.52;;
70800;SDS011;59616;52.170;5.386;2023-03-11T06:46:30;3.90;;;0.82;;
70800;SDS011;59616;52.170;5.386;2023-03-11T06:48:58;2.10;;;0.65;;
70800;SDS011;59616;52.170;5.386;2023-03-11T06:51:27;2.83;;;0.93;;
70800;SDS011;59616;52.170;5.386;2023-03-11T06:56:22;2.92;;;0.95;;
70800;SDS011;59616;52.170;5.386;2023-03-11T06:59:00;2.53;;;0.90;;
70800;SDS011;59616;52.170;5.386;2023-03-11T07:01:30;4.40;;;0.98;;
70800;SDS011;59616;52.170;5.386;2023-03-11T07:03:59;5.93;;;1.25;;
70800;SDS011;59616;52.170;5.386;2023-03-11T07:06:27;2.42;;;0.85;;
70800;SDS011;59616;52.170;5.386;2023-03-11T07:09:04;2.05;;;0.80;;
70800;SDS011;59616;52.170;5.386;2023-03-11T07:11:33;3.15;;;1.08;;
70800;SDS011;59616;52.170;5.386;2023-03-11T07:16:37;3.58;;;1.20;;
70800;SDS011;59616;52.170;5.386;2023-03-11T07:19:11;4.28;;;1.30;;
70800;SDS011;59616;52.170;5.386;2023-03-11T07:21:38;2.97;;;1.08;;
70800;SDS011;59616;52.170;5.386;2023-03-11T07:24:06;3.88;;;1.20;;
70800;SDS011;59616;52.170;5.386;2023-03-11T07:26:33;4.35;;;1.52;;
70800;SDS011;59616;52.170;5.386;2023-03-11T07:29:02;10.02;;;1.70;;
70800;SDS011;59616;52.170;5.386;2023-03-11T07:31:30;5.10;;;1.35;;
70800;SDS011;59616;52.170;5.386;2023-03-11T07:33:57;10.40;;;1.75;;
70800;SDS011;59616;52.170;5.386;2023-03-11T07:36:25;3.85;;;1.25;;
70800;SDS011;59616;52.170;5.386;2023-03-11T07:38:56;4.45;;;1.58;;
70800;SDS011;59616;52.170;5.386;2023-03-11T07:41:25;4.80;;;1.40;;
70800;SDS011;59616;52.170;5.386;2023-03-11T07:43:53;3.72;;;1.35;;
70800;SDS011;59616;52.170;5.386;2023-03-11T07:46:21;10.23;;;1.48;;
70800;SDS011;59616;52.170;5.386;2023-03-11T07:48:49;6.43;;;1.20;;
70800;SDS011;59616;52.170;5.386;2023-03-11T07:51:20;4.07;;;1.52;;
70800;SDS011;59616;52.170;5.386;2023-03-11T07:53:48;5.07;;;1.40;;
70800;SDS011;59616;52.170;5.386;2023-03-11T07:56:15;7.32;;;1.60;;
70800;SDS011;59616;52.170;5.386;2023-03-11T07:58:43;4.28;;;1.70;;
70800;SDS011;59616;52.170;5.386;2023-03-11T08:01:14;6.45;;;1.55;;
70800;SDS011;59616;52.170;5.386;2023-03-11T08:03:43;6.97;;;2.10;;
70800;SDS011;59616;52.170;5.386;2023-03-11T08:06:20;4.85;;;1.85;;
70800;SDS011;59616;52.170;5.386;2023-03-11T08:08:48;12.25;;;2.17;;
70800;SDS011;59616;52.170;5.386;2023-03-11T08:11:17;6.80;;;1.80;;
70800;SDS011;59616;52.170;5.386;2023-03-11T08:13:44;4.32;;;1.40;;
70800;SDS011;59616;52.170;5.386;2023-03-11T08:16:13;7.07;;;1.67;;
70800;SDS011;59616;52.170;5.386;2023-03-11T08:18:40;2.88;;;0.70;;
70800;SDS011;59616;52.170;5.386;2023-03-11T08:21:08;2.75;;;0.90;;
70800;SDS011;59616;52.170;5.386;2023-03-11T08:23:37;3.25;;;0.63;;
70800;SDS011;59616;52.170;5.386;2023-03-11T08:26:05;1.55;;;0.60;;
70800;SDS011;59616;52.170;5.386;2023-03-11T08:28:32;4.75;;;0.85;;
70800;SDS011;59616;52.170;5.386;2023-03-11T08:31:00;4.88;;;0.50;;
70800;SDS011;59616;52.170;5.386;2023-03-11T08:33:27;7.43;;;0.80;;
70800;SDS011;59616;52.170;5.386;2023-03-11T08:35:55;7.45;;;1.20;;
70800;SDS011;59616;52.170;5.386;2023-03-11T08:40:49;6.70;;;1.00;;
70800;SDS011;59616;52.170;5.386;2023-03-11T08:45:42;8.10;;;0.40;;
70800;SDS011;59616;52.170;5.386;2023-03-11T08:48:10;2.00;;;0.43;;
70800;SDS011;59616;52.170;5.386;2023-03-11T08:50:41;3.65;;;0.60;;
70800;SDS011;59616;52.170;5.386;2023-03-11T08:53:19;2.33;;;0.50;;
70800;SDS011;59616;52.170;5.386;2023-03-11T08:55:46;4.68;;;0.50;;
70800;SDS011;59616;52.170;5.386;2023-03-11T09:00:40;3.30;;;0.77;;
70800;SDS011;59616;52.170;5.386;2023-03-11T09:05:35;3.63;;;0.70;;
70800;SDS011;59616;52.170;5.386;2023-03-11T09:08:02;1.27;;;0.43;;
70800;SDS011;59616;52.170;5.386;2023-03-11T09:10:31;3.40;;;0.50;;
70800;SDS011;59616;52.170;5.386;2023-03-11T09:12:58;2.72;;;0.70;;
70800;SDS011;59616;52.170;5.386;2023-03-11T09:15:25;4.40;;;0.90;;
70800;SDS011;59616;52.170;5.386;2023-03-11T09:17:52;2.65;;;0.80;;
70800;SDS011;59616;52.170;5.386;2023-03-11T09:20:20;1.15;;;0.50;;
70800;SDS011;59616;52.170;5.386;2023-03-11T09:22:47;2.22;;;0.63;;
70800;SDS011;59616;52.170;5.386;2023-03-11T09:25:14;2.00;;;0.60;;
70800;SDS011;59616;52.170;5.386;2023-03-11T09:27:41;2.03;;;0.80;;
70800;SDS011;59616;52.170;5.386;2023-03-11T09:30:09;7.45;;;0.70;;
70800;SDS011;59616;52.170;5.386;2023-03-11T09:32:36;2.20;;;0.88;;
70800;SDS011;59616;52.170;5.386;2023-03-11T09:35:03;4.22;;;0.85;;
70800;SDS011;59616;52.170;5.386;2023-03-11T09:37:31;3.40;;;0.77;;
70800;SDS011;59616;52.170;5.386;2023-03-11T09:39:58;5.65;;;1.30;;
70800;SDS011;59616;52.170;5.386;2023-03-11T09:45:03;3.28;;;1.30;;
70800;SDS011;59616;52.170;5.386;2023-03-11T09:52:44;4.03;;;1.10;;
70800;SDS011;59616;52.170;5.386;2023-03-11T09:55:31;4.78;;;1.05;;
70800;SDS011;59616;52.170;5.386;2023-03-11T09:58:00;6.35;;;1.70;;
70800;SDS011;59616;52.170;5.386;2023-03-11T10:00:29;8.65;;;1.67;;
70800;SDS011;59616;52.170;5.386;2023-03-11T10:02:56;5.35;;;1.15;;
70800;SDS011;59616;52.170;5.386;2023-03-11T10:05:27;4.05;;;1.38;;
70800;SDS011;59616;52.170;5.386;2023-03-11T10:08:00;3.60;;;1.00;;
70800;SDS011;59616;52.170;5.386;2023-03-11T10:10:32;4.10;;;1.20;;
70800;SDS011;59616;52.170;5.386;2023-03-11T10:15:47;3.47;;;1.10;;
70800;SDS011;59616;52.170;5.386;2023-03-11T10:21:30;4.32;;;0.95;;
70800;SDS011;59616;52.170;5.386;2023-03-11T10:26:30;4.22;;;0.88;;
70800;SDS011;59616;52.170;5.386;2023-03-11T10:29:01;8.40;;;1.02;;
70800;SDS011;59616;52.170;5.386;2023-03-11T10:31:38;3.10;;;0.88;;
70800;SDS011;59616;52.170;5.386;2023-03-11T10:39:20;4.72;;;1.23;;
70800;SDS011;59616;52.170;5.386;2023-03-11T10:41:58;4.63;;;1.05;;
70800;SDS011;59616;52.170;5.386;2023-03-11T10:44:31;6.13;;;1.23;;
70800;SDS011;59616;52.170;5.386;2023-03-11T10:46:59;5.63;;;1.20;;
70800;SDS011;59616;52.170;5.386;2023-03-11T10:49:27;2.72;;;0.90;;
70800;SDS011;59616;52.170;5.386;2023-03-11T10:51:54;1.48;;;0.73;;
70800;SDS011;59616;52.170;5.386;2023-03-11T10:56:53;5.85;;;0.75;;
70800;SDS011;59616;52.170;5.386;2023-03-11T10:59:23;2.60;;;0.93;;
70800;SDS011;59616;52.170;5.386;2023-03-11T11:02:01;2.95;;;0.90;;
70800;SDS011;59616;52.170;5.386;2023-03-11T11:04:33;3.72;;;0.80;;
70800;SDS011;59616;52.170;5.386;2023-03-11T11:12:49;7.53;;;1.00;;
70800;SDS011;59616;52.170;5.386;2023-03-11T11:15:33;2.97;;;0.98;;
70800;SDS011;59616;52.170;5.386;2023-03-11T11:18:01;3.28;;;0.75;;
70800;SDS011;59616;52.170;5.386;2023-03-11T11:20:30;2.67;;;0.70;;
70800;SDS011;59616;52.170;5.386;2023-03-11T11:22:59;4.03;;;1.10;;
70800;SDS011;59616;52.170;5.386;2023-03-11T11:27:58;5.35;;;1.02;;
70800;SDS011;59616;52.170;5.386;2023-03-11T11:30:26;1.88;;;0.70;;
70800;SDS011;59616;52.170;5.386;2023-03-11T11:32:53;3.75;;;0.82;;
70800;SDS011;59616;52.170;5.386;2023-03-11T11:35:22;3.45;;;0.85;;
70800;SDS011;59616;52.170;5.386;2023-03-11T11:37:58;1.58;;;0.63;;
70800;SDS011;59616;52.170;5.386;2023-03-11T11:40:27;5.75;;;1.30;;
70800;SDS011;59616;52.170;5.386;2023-03-11T11:42:58;5.22;;;1.10;;
70800;SDS011;59616;52.170;5.386;2023-03-11T11:45:36;4.15;;;0.90;;
70800;SDS011;59616;52.170;5.386;2023-03-11T11:48:19;6.93;;;1.10;;
70800;SDS011;59616;52.170;5.386;2023-03-11T11:50:50;3.05;;;0.90;;
70800;SDS011;59616;52.170;5.386;2023-03-11T11:55:46;3.13;;;0.88;;
70800;SDS011;59616;52.170;5.386;2023-03-11T11:58:14;3.30;;;0.77;;
70800;SDS011;59616;52.170;5.386;2023-03-11T12:00:46;4.18;;;0.68;;
70800;SDS011;59616;52.170;5.386;2023-03-11T12:08:17;9.60;;;1.20;;
70800;SDS011;59616;52.170;5.386;2023-03-11T12:16:04;4.43;;;0.90;;
70800;SDS011;59616;52.170;5.386;2023-03-11T12:18:41;6.25;;;0.98;;
70800;SDS011;59616;52.170;5.386;2023-03-11T12:26:23;2.15;;;1.02;;
70800;SDS011;59616;52.170;5.386;2023-03-11T12:31:19;3.50;;;0.60;;
70800;SDS011;59616;52.170;5.386;2023-03-11T12:33:48;4.50;;;0.80;;
70800;SDS011;59616;52.170;5.386;2023-03-11T12:36:50;6.53;;;0.93;;
70800;SDS011;59616;52.170;5.386;2023-03-11T12:39:29;1.45;;;0.60;;
70800;SDS011;59616;52.170;5.386;2023-03-11T12:44:43;4.38;;;1.08;;
70800;SDS011;59616;52.170;5.386;2023-03-11T12:49:41;4.03;;;1.20;;
70800;SDS011;59616;52.170;5.386;2023-03-11T12:54:40;4.30;;;0.80;;
70800;SDS011;59616;52.170;5.386;2023-03-11T12:59:50;4.40;;;1.05;;
70800;SDS011;59616;52.170;5.386;2023-03-11T13:05:20;8.73;;;1.10;;
70800;SDS011;59616;52.170;5.386;2023-03-11T13:07:50;4.35;;;0.93;;
70800;SDS011;59616;52.170;5.386;2023-03-11T13:12:54;2.92;;;0.90;;
70800;SDS011;59616;52.170;5.386;2023-03-11T13:15:30;0.70;;;0.50;;
70800;SDS011;59616;52.170;5.386;2023-03-11T13:17:59;3.20;;;0.80;;
70800;SDS011;59616;52.170;5.386;2023-03-11T13:33:30;4.82;;;0.85;;
70800;SDS011;59616;52.170;5.386;2023-03-11T13:41:26;3.50;;;0.65;;
70800;SDS011;59616;52.170;5.386;2023-03-11T13:43:59;5.38;;;0.80;;
70800;SDS011;59616;52.170;5.386;2023-03-11T13:46:27;3.17;;;1.20;;
70800;SDS011;59616;52.170;5.386;2023-03-11T13:51:46;2.25;;;0.88;;
70800;SDS011;59616;52.170;5.386;2023-03-11T13:56:47;3.17;;;0.80;;
70800;SDS011;59616;52.170;5.386;2023-03-11T14:04:25;2.28;;;0.70;;
70800;SDS011;59616;52.170;5.386;2023-03-11T14:06:53;4.70;;;1.00;;
70800;SDS011;59616;52.170;5.386;2023-03-11T14:09:22;5.13;;;1.10;;
70800;SDS011;59616;52.170;5.386;2023-03-11T14:11:51;4.45;;;1.00;;
70800;SDS011;59616;52.170;5.386;2023-03-11T14:14:29;4.65;;;1.08;;
70800;SDS011;59616;52.170;5.386;2023-03-11T14:16:58;5.85;;;1.00;;
70800;SDS011;59616;52.170;5.386;2023-03-11T14:19:26;2.28;;;0.70;;
70800;SDS011;59616;52.170;5.386;2023-03-11T14:21:54;12.85;;;3.10;;
70800;SDS011;59616;52.170;5.386;2023-03-11T14:24:22;3.75;;;1.45;;
70800;SDS011;59616;52.170;5.386;2023-03-11T14:26:50;3.83;;;1.17;;
70800;SDS011;59616;52.170;5.386;2023-03-11T14:29:39;3.58;;;0.73;;
70800;SDS011;59616;52.170;5.386;2023-03-11T14:32:29;3.22;;;0.70;;
70800;SDS011;59616;52.170;5.386;2023-03-11T14:34:57;2.95;;;0.80;;
70800;SDS011;59616;52.170;5.386;2023-03-11T14:37:29;4.25;;;1.10;;
70800;SDS011;59616;52.170;5.386;2023-03-11T14:39:57;4.07;;;0.88;;
70800;SDS011;59616;52.170;5.386;2023-03-11T14:42:25;7.40;;;1.10;;
70800;SDS011;59616;52.170;5.386;2023-03-11T14:47:37;1.38;;;0.55;;
70800;SDS011;59616;52.170;5.386;2023-03-11T14:50:05;2.65;;;0.82;;
70800;SDS011;59616;52.170;5.386;2023-03-11T14:52:41;5.00;;;1.17;;
70800;SDS011;59616;52.170;5.386;2023-03-11T14:55:22;3.03;;;0.70;;
70800;SDS011;59616;52.170;5.386;2023-03-11T14:58:02;5.60;;;1.15;;
70800;SDS011;59616;52.170;5.386;2023-03-11T15:03:22;6.82;;;1.25;;
70800;SDS011;59616;52.170;5.386;2023-03-11T15:05:54;3.47;;;1.10;;
70800;SDS011;59616;52.170;5.386;2023-03-11T15:08:24;1.30;;;0.60;;
70800;SDS011;59616;52.170;5.386;2023-03-11T15:11:06;2.35;;;0.77;;
70800;SDS011;59616;52.170;5.386;2023-03-11T15:13:34;1.70;;;0.68;;
70800;SDS011;59616;52.170;5.386;2023-03-11T15:16:03;3.55;;;0.90;;
70800;SDS011;59616;52.170;5.386;2023-03-11T15:18:33;2.70;;;0.98;;
70800;SDS011;59616;52.170;5.386;2023-03-11T15:21:03;2.97;;;0.93;;
70800;SDS011;59616;52.170;5.386;2023-03-11T15:23:33;6.40;;;1.38;;
70800;SDS011;59616;52.170;5.386;2023-03-11T15:26:00;4.03;;;1.40;;
70800;SDS011;59616;52.170;5.386;2023-03-11T15:28:32;2.50;;;0.85;;
70800;SDS011;59616;52.170;5.386;2023-03-11T15:33:42;8.77;;;1.20;;
70800;SDS011;59616;52.170;5.386;2023-03-11T15:36:28;2.75;;;1.10;;
70800;SDS011;59616;52.170;5.386;2023-03-11T15:41:34;2.60;;;1.10;;
70800;SDS011;59616;52.170;5.386;2023-03-11T15:44:01;4.57;;;1.10;;
70800;SDS011;59616;52.170;5.386;2023-03-11T15:46:32;4.32;;;1.02;;
70800;SDS011;59616;52.170;5.386;2023-03-11T15:49:00;3.75;;;1.10;;
70800;SDS011;59616;52.170;5.386;2023-03-11T15:51:27;2.58;;;0.80;;
70800;SDS011;59616;52.170;5.386;2023-03-11T15:53:54;2.30;;;1.00;;
70800;SDS011;59616;52.170;5.386;2023-03-11T15:56:22;5.30;;;0.93;;
70800;SDS011;59616;52.170;5.386;2023-03-11T15:58:49;3.65;;;1.23;;
70800;SDS011;59616;52.170;5.386;2023-03-11T16:01:17;3.15;;;1.13;;
70800;SDS011;59616;52.170;5.386;2023-03-11T16:03:48;5.32;;;1.02;;
70800;SDS011;59616;52.170;5.386;2023-03-11T16:06:15;4.60;;;0.88;;
70800;SDS011;59616;52.170;5.386;2023-03-11T16:08:42;4.47;;;1.17;;
70800;SDS011;59616;52.170;5.386;2023-03-11T16:11:11;3.92;;;0.95;;
70800;SDS011;59616;52.170;5.386;2023-03-11T16:13:38;3.83;;;1.00;;
70800;SDS011;59616;52.170;5.386;2023-03-11T16:16:13;1.35;;;0.70;;
70800;SDS011;59616;52.170;5.386;2023-03-11T16:18:41;6.40;;;1.08;;
70800;SDS011;59616;52.170;5.386;2023-03-11T16:21:10;4.15;;;0.98;;
70800;SDS011;59616;52.170;5.386;2023-03-11T16:23:39;4.78;;;1.00;;
70800;SDS011;59616;52.170;5.386;2023-03-11T16:26:17;3.40;;;1.00;;
70800;SDS011;59616;52.170;5.386;2023-03-11T16:28:44;3.28;;;1.10;;
70800;SDS011;59616;52.170;5.386;2023-03-11T16:31:11;5.85;;;1.40;;
70800;SDS011;59616;52.170;5.386;2023-03-11T16:33:39;3.78;;;1.35;;
70800;SDS011;59616;52.170;5.386;2023-03-11T16:36:06;4.75;;;1.17;;
70800;SDS011;59616;52.170;5.386;2023-03-11T16:38:42;3.67;;;1.10;;
70800;SDS011;59616;52.170;5.386;2023-03-11T16:41:09;5.07;;;1.33;;
70800;SDS011;59616;52.170;5.386;2023-03-11T16:43:36;3.72;;;0.80;;
70800;SDS011;59616;52.170;5.386;2023-03-11T16:46:04;3.70;;;1.02;;
70800;SDS011;59616;52.170;5.386;2023-03-11T16:48:31;3.15;;;1.00;;
70800;SDS011;59616;52.170;5.386;2023-03-11T16:50:58;6.72;;;1.20;;
70800;SDS011;59616;52.170;5.386;2023-03-11T16:53:25;4.03;;;1.08;;
70800;SDS011;59616;52.170;5.386;2023-03-11T16:55:53;5.20;;;1.38;;
70800;SDS011;59616;52.170;5.386;2023-03-11T16:58:20;4.68;;;1.20;;
70800;SDS011;59616;52.170;5.386;2023-03-11T17:00:47;5.38;;;1.65;;
70800;SDS011;59616;52.170;5.386;2023-03-11T17:03:15;5.18;;;1.38;;
70800;SDS011;59616;52.170;5.386;2023-03-11T17:05:46;6.40;;;1.50;;
70800;SDS011;59616;52.170;5.386;2023-03-11T17:08:13;4.10;;;1.00;;
70800;SDS011;59616;52.170;5.386;2023-03-11T17:10:43;8.77;;;1.40;;
70800;SDS011;59616;52.170;5.386;2023-03-11T17:13:12;2.00;;;1.00;;
70800;SDS011;59616;52.170;5.386;2023-03-11T17:15:42;4.88;;;1.23;;
70800;SDS011;59616;52.170;5.386;2023-03-11T17:18:11;6.40;;;1.73;;
70800;SDS011;59616;52.170;5.386;2023-03-11T17:20:39;3.75;;;1.48;;
70800;SDS011;59616;52.170;5.386;2023-03-11T17:23:08;5.07;;;1.85;;
70800;SDS011;59616;52.170;5.386;2023-03-11T17:25:38;6.70;;;2.25;;
70800;SDS011;59616;52.170;5.386;2023-03-11T17:28:05;6.13;;;2.13;;
70800;SDS011;59616;52.170;5.386;2023-03-11T17:30:32;10.00;;;3.25;;
70800;SDS011;59616;52.170;5.386;2023-03-11T17:33:04;10.82;;;3.05;;
70800;SDS011;59616;52.170;5.386;2023-03-11T17:35:31;11.05;;;2.88;;
70800;SDS011;59616;52.170;5.386;2023-03-11T17:37:58;9.93;;;2.80;;
70800;SDS011;59616;52.170;5.386;2023-03-11T17:40:25;9.07;;;3.03;;
70800;SDS011;59616;52.170;5.386;2023-03-11T17:42:54;12.15;;;3.30;;
70800;SDS011;59616;52.170;5.386;2023-03-11T17:45:21;11.63;;;3.60;;
70800;SDS011;59616;52.170;5.386;2023-03-11T17:47:49;12.10;;;3.65;;